createdAt,value
2022-12-03T00:01:58.524Z,26.55
2022-12-03T00:04:26.935Z,26.90
2022-12-03T00:06:53.525Z,25.90
2022-12-03T00:09:20.138Z,25.90
2022-12-03T00:11:46.623Z,27.55
2022-12-03T00:14:13.195Z,27.80
2022-12-03T00:16:39.832Z,27.67
2022-12-03T00:19:07.689Z,27.92
2022-12-03T00:21:34.650Z,26.95
2022-12-03T00:24:05.656Z,27.52
2022-12-03T00:26:32.229Z,26.45
2022-12-03T00:28:58.749Z,28.92
2022-12-03T00:31:25.726Z,27.63
2022-12-03T00:33:53.205Z,31.75
2022-12-03T00:36:19.791Z,28.52
2022-12-03T00:38:46.259Z,28.70
2022-12-03T00:41:13.116Z,25.58
2022-12-03T00:43:39.663Z,30.45
2022-12-03T00:46:06.208Z,26.25
2022-12-03T00:48:32.762Z,30.50
2022-12-03T00:50:59.702Z,32.70
2022-12-03T00:53:26.273Z,29.92
2022-12-03T00:55:52.735Z,30.58
2022-12-03T00:58:19.244Z,28.23
2022-12-03T01:00:46.792Z,28.98
2022-12-03T01:03:13.341Z,29.80
2022-12-03T01:05:39.819Z,33.28
2022-12-03T01:08:06.331Z,29.30
2022-12-03T01:10:32.974Z,31.27
2022-12-03T01:12:59.425Z,30.60
2022-12-03T01:15:25.869Z,31.90
2022-12-03T01:17:54.243Z,27.23
2022-12-03T01:20:21.048Z,30.10
2022-12-03T01:22:47.548Z,30.58
2022-12-03T01:25:14.343Z,31.13
2022-12-03T01:27:40.897Z,29.33
2022-12-03T01:30:08.901Z,29.40
2022-12-03T01:32:35.454Z,31.20
2022-12-03T01:35:01.959Z,29.92
2022-12-03T01:37:28.790Z,30.25
2022-12-03T01:39:55.239Z,30.25
2022-12-03T01:42:25.787Z,34.35
2022-12-03T01:44:56.174Z,31.38
2022-12-03T01:47:29.905Z,30.08
2022-12-03T01:50:15.446Z,31.95
2022-12-03T01:52:42.483Z,30.58
2022-12-03T01:55:15.404Z,30.63
2022-12-03T01:57:47.912Z,30.88
2022-12-03T02:00:20.691Z,34.97
2022-12-03T02:02:50.619Z,31.48
2022-12-03T02:05:21.662Z,32.40
2022-12-03T02:07:48.243Z,30.90
2022-12-03T02:10:17.228Z,30.70
2022-12-03T02:12:50.517Z,33.63
2022-12-03T02:15:17.133Z,30.25
2022-12-03T02:17:44.171Z,32.80
2022-12-03T02:20:12.415Z,30.63
2022-12-03T02:22:44.972Z,30.60
2022-12-03T02:25:16.055Z,30.30
2022-12-03T02:27:43.244Z,31.90
2022-12-03T02:30:11.076Z,31.00
2022-12-03T02:32:37.792Z,32.90
2022-12-03T02:35:05.024Z,32.72
2022-12-03T02:37:36.800Z,32.92
2022-12-03T02:40:08.435Z,33.78
2022-12-03T02:42:35.026Z,36.72
2022-12-03T02:45:13.840Z,33.03
2022-12-03T02:47:51.564Z,29.45
2022-12-03T02:50:23.388Z,31.40
2022-12-03T02:52:54.119Z,31.90
2022-12-03T02:55:21.300Z,32.20
2022-12-03T02:57:50.195Z,30.45
2022-12-03T03:00:18.292Z,30.58
2022-12-03T03:02:46.701Z,35.85
2022-12-03T03:05:15.707Z,31.52
2022-12-03T03:07:42.648Z,32.88
2022-12-03T03:10:12.432Z,34.22
2022-12-03T03:12:39.594Z,36.78
2022-12-03T03:15:07.975Z,32.90
2022-12-03T03:17:34.884Z,31.73
2022-12-03T03:20:02.771Z,31.75
2022-12-03T03:22:40.253Z,30.10
2022-12-03T03:25:10.839Z,31.33
2022-12-03T03:27:38.705Z,32.72
2022-12-03T03:30:06.580Z,33.70
2022-12-03T03:32:33.791Z,32.70
2022-12-03T03:35:00.882Z,32.88
2022-12-03T03:37:28.461Z,33.13
2022-12-03T03:39:55.441Z,31.85
2022-12-03T03:42:22.707Z,32.03
2022-12-03T03:44:49.759Z,30.65
2022-12-03T03:47:17.786Z,29.60
2022-12-03T03:49:44.603Z,29.35
2022-12-03T03:52:11.769Z,33.08
2022-12-03T03:54:39.287Z,32.63
2022-12-03T03:57:06.081Z,32.55
2022-12-03T03:59:32.585Z,34.75
2022-12-03T04:01:59.113Z,34.17
2022-12-03T04:04:35.126Z,29.33
2022-12-03T04:07:02.048Z,31.10
2022-12-03T04:09:28.567Z,34.90
2022-12-03T04:12:15.136Z,33.70
2022-12-03T04:14:41.574Z,32.35
2022-12-03T04:17:08.052Z,30.67
2022-12-03T04:19:34.643Z,32.33
2022-12-03T04:22:19.520Z,33.97
2022-12-03T04:24:45.981Z,34.13
2022-12-03T04:27:31.093Z,37.30
2022-12-03T04:29:57.596Z,31.10
2022-12-03T04:32:42.536Z,35.15
2022-12-03T04:35:28.395Z,33.67
2022-12-03T04:40:39.786Z,34.25
2022-12-03T04:43:06.271Z,39.20
2022-12-03T04:45:32.899Z,34.17
2022-12-03T04:47:59.369Z,32.92
2022-12-03T04:50:26.029Z,37.90
2022-12-03T04:52:52.493Z,37.90
2022-12-03T04:55:19.016Z,39.28
2022-12-03T04:57:45.472Z,39.65
2022-12-03T05:00:12.650Z,39.22
2022-12-03T05:02:39.411Z,37.70
2022-12-03T05:05:06.521Z,39.58
2022-12-03T05:07:33.018Z,40.75
2022-12-03T05:09:59.602Z,40.13
2022-12-03T05:12:26.120Z,40.72
2022-12-03T05:14:56.008Z,37.58
2022-12-03T05:17:22.835Z,40.80
2022-12-03T05:20:07.786Z,40.42
2022-12-03T05:22:34.381Z,38.80
2022-12-03T05:25:00.885Z,38.40
2022-12-03T05:27:27.485Z,42.17
2022-12-03T05:29:54.033Z,36.58
2022-12-03T05:32:20.751Z,42.70
2022-12-03T05:34:47.258Z,40.25
2022-12-03T05:37:13.779Z,37.28
2022-12-03T05:39:40.240Z,38.97
2022-12-03T05:42:24.967Z,37.95
2022-12-03T05:44:51.643Z,41.58
2022-12-03T05:47:18.291Z,39.20
2022-12-03T05:49:44.780Z,38.65
2022-12-03T05:52:11.371Z,43.33
2022-12-03T05:54:38.190Z,38.95
2022-12-03T05:57:04.761Z,40.03
2022-12-03T05:59:31.248Z,41.95
2022-12-03T06:01:57.732Z,42.95
2022-12-03T06:04:24.235Z,42.47
2022-12-03T06:06:50.754Z,38.33
2022-12-03T06:09:17.256Z,41.05
2022-12-03T06:11:43.704Z,38.47
2022-12-03T06:14:10.165Z,37.53
2022-12-03T06:16:36.690Z,35.67
2022-12-03T06:19:03.304Z,42.13
2022-12-03T06:21:29.794Z,39.03
2022-12-03T06:23:56.287Z,39.80
2022-12-03T06:26:22.784Z,39.17
2022-12-03T06:28:49.316Z,37.28
2022-12-03T06:31:15.913Z,37.13
2022-12-03T06:33:42.493Z,36.90
2022-12-03T06:36:09.157Z,34.72
2022-12-03T06:38:35.698Z,41.40
2022-12-03T06:41:02.381Z,42.83
2022-12-03T06:43:30.828Z,38.63
2022-12-03T06:45:57.343Z,34.92
2022-12-03T06:48:24.112Z,34.88
2022-12-03T06:50:51.676Z,35.83
2022-12-03T06:53:33.243Z,35.63
2022-12-03T06:55:59.829Z,34.97
2022-12-03T06:58:26.427Z,33.17
2022-12-03T07:00:52.891Z,37.25
2022-12-03T07:03:19.696Z,35.50
2022-12-03T07:05:46.272Z,32.03
2022-12-03T07:08:12.899Z,33.55
2022-12-03T07:10:39.604Z,36.05
2022-12-03T07:13:06.060Z,32.28
2022-12-03T07:15:32.494Z,33.63
2022-12-03T07:17:59.016Z,30.83
2022-12-03T07:20:25.876Z,33.10
2022-12-03T07:22:53.639Z,32.25
2022-12-03T07:25:23.335Z,38.30
2022-12-03T07:27:50.745Z,32.80
2022-12-03T07:30:17.836Z,34.00
2022-12-03T07:32:44.426Z,34.20
2022-12-03T07:35:11.044Z,34.90
2022-12-03T07:37:37.499Z,34.45
2022-12-03T07:40:05.375Z,35.00
2022-12-03T07:42:32.076Z,34.80
2022-12-03T07:44:58.576Z,35.17
2022-12-03T07:47:25.024Z,34.90
2022-12-03T07:49:51.539Z,32.90
2022-12-03T07:52:18.059Z,32.50
2022-12-03T07:54:44.559Z,35.97
2022-12-03T07:57:11.061Z,34.53
2022-12-03T07:59:38.523Z,33.63
2022-12-03T08:02:05.218Z,38.03
2022-12-03T08:04:31.952Z,38.45
2022-12-03T08:06:58.417Z,32.47
2022-12-03T08:09:24.920Z,36.95
2022-12-03T08:11:51.997Z,35.67
2022-12-03T08:14:20.128Z,37.72
2022-12-03T08:16:47.832Z,38.47
2022-12-03T08:19:16.211Z,37.83
2022-12-03T08:21:43.066Z,34.45
2022-12-03T08:24:18.367Z,35.40
2022-12-03T08:26:46.644Z,38.58
2022-12-03T08:29:17.354Z,37.00
2022-12-03T08:31:56.996Z,39.53
2022-12-03T08:34:27.793Z,52.35
2022-12-03T08:37:05.790Z,41.10
2022-12-03T08:39:35.018Z,41.17
2022-12-03T08:42:23.154Z,42.60
2022-12-03T08:44:49.716Z,40.53
2022-12-03T08:47:20.287Z,41.08
2022-12-03T08:49:55.184Z,45.25
2022-12-03T08:52:26.548Z,39.25
2022-12-03T08:54:57.078Z,44.53
2022-12-03T08:57:34.891Z,41.65
2022-12-03T09:00:20.452Z,42.15
2022-12-03T09:02:52.510Z,46.30
2022-12-03T09:05:22.168Z,44.17
2022-12-03T09:07:48.980Z,43.88
2022-12-03T09:10:15.829Z,43.67
2022-12-03T09:12:42.340Z,47.65
2022-12-03T09:15:09.099Z,42.22
2022-12-03T09:17:35.605Z,43.33
2022-12-03T09:20:02.267Z,42.17
2022-12-03T09:22:28.915Z,42.45
2022-12-03T09:24:55.614Z,45.03
2022-12-03T09:27:22.828Z,39.83
2022-12-03T09:29:50.580Z,43.17
2022-12-03T09:32:18.715Z,40.67
2022-12-03T09:34:45.540Z,45.03
2022-12-03T09:37:12.024Z,45.10
2022-12-03T09:39:38.506Z,42.10
2022-12-03T09:42:05.471Z,42.58
2022-12-03T09:44:34.175Z,39.90
2022-12-03T09:47:05.345Z,40.53
2022-12-03T09:49:36.009Z,44.85
2022-12-03T09:52:05.592Z,41.63
2022-12-03T09:54:32.707Z,39.58
2022-12-03T09:57:02.581Z,35.67
2022-12-03T09:59:33.543Z,34.67
2022-12-03T10:02:01.360Z,32.15
2022-12-03T10:04:29.688Z,29.38
2022-12-03T10:06:58.123Z,28.30
2022-12-03T10:09:27.178Z,51.65
2022-12-03T10:11:55.536Z,29.10
2022-12-03T10:14:22.086Z,25.58
2022-12-03T10:16:48.864Z,24.52
2022-12-03T10:19:29.065Z,22.65
2022-12-03T10:22:00.566Z,25.92
2022-12-03T10:24:28.974Z,21.15
2022-12-03T10:27:21.292Z,21.25
2022-12-03T10:29:58.916Z,22.67
2022-12-03T10:32:43.856Z,23.65
2022-12-03T10:35:13.545Z,22.13
2022-12-03T10:37:59.153Z,21.35
2022-12-03T10:40:29.034Z,23.38
2022-12-03T10:43:18.913Z,24.73
2022-12-03T10:46:04.497Z,21.52
2022-12-03T10:51:20.757Z,22.77
2022-12-03T10:53:49.563Z,24.83
2022-12-03T10:56:25.525Z,24.35
2022-12-03T10:58:52.491Z,24.35
2022-12-03T11:01:23.285Z,23.88
2022-12-03T11:03:50.612Z,25.02
2022-12-03T11:06:22.232Z,23.00
2022-12-03T11:08:57.530Z,27.25
2022-12-03T11:11:28.649Z,26.60
2022-12-03T11:14:00.510Z,24.45
2022-12-03T11:16:38.845Z,30.48
2022-12-03T11:19:17.437Z,29.55
2022-12-03T11:22:05.860Z,27.52
2022-12-03T11:24:37.411Z,23.63
2022-12-03T11:27:03.840Z,25.50
2022-12-03T11:29:53.492Z,25.70
2022-12-03T11:32:38.324Z,26.55
2022-12-03T11:35:25.482Z,25.15
2022-12-03T11:37:52.267Z,29.45
2022-12-03T11:40:18.665Z,31.98
2022-12-03T11:42:47.822Z,26.10
2022-12-03T11:45:33.357Z,26.67
2022-12-03T11:47:59.809Z,26.73
2022-12-03T11:50:39.828Z,27.10
2022-12-03T11:53:25.836Z,28.50
2022-12-03T11:56:06.512Z,27.02
2022-12-03T11:58:35.051Z,28.90
2022-12-03T12:01:04.067Z,27.67
2022-12-03T12:03:33.426Z,29.63
2022-12-03T12:06:04.820Z,28.40
2022-12-03T12:08:32.925Z,29.95
2022-12-03T12:10:59.740Z,28.52
2022-12-03T12:13:32.245Z,27.10
2022-12-03T12:15:59.799Z,29.63
2022-12-03T12:19:18.489Z,30.85
2022-12-03T12:21:48.897Z,31.70
2022-12-03T12:24:40.222Z,29.08
2022-12-03T12:27:29.622Z,30.70
2022-12-03T12:29:57.563Z,32.30
2022-12-03T12:32:30.162Z,28.98
2022-12-03T12:35:06.934Z,31.80
2022-12-03T12:37:47.680Z,32.00
2022-12-03T12:40:18.337Z,32.17
2022-12-03T12:43:09.976Z,34.50
2022-12-03T12:45:41.903Z,33.65
2022-12-03T12:48:25.060Z,34.80
2022-12-03T12:51:08.891Z,33.15
2022-12-03T12:53:37.157Z,33.50
2022-12-03T12:56:30.041Z,32.03
2022-12-03T12:59:13.250Z,33.42
2022-12-03T13:01:41.427Z,33.90
2022-12-03T13:04:14.119Z,33.63
2022-12-03T13:06:41.069Z,31.55
2022-12-03T13:09:33.624Z,32.78
2022-12-03T13:12:03.937Z,34.20
2022-12-03T13:14:34.607Z,37.40
2022-12-03T13:17:07.200Z,35.85
2022-12-03T13:19:43.557Z,36.55
2022-12-03T13:22:18.451Z,38.25
2022-12-03T13:24:52.988Z,38.33
2022-12-03T13:27:31.775Z,40.53
2022-12-03T13:30:00.978Z,40.85
2022-12-03T13:32:47.176Z,40.67
2022-12-03T13:35:24.066Z,39.63
2022-12-03T13:37:50.586Z,39.20
2022-12-03T13:40:22.339Z,42.15
2022-12-03T13:42:49.022Z,40.47
2022-12-03T13:45:15.481Z,40.33
2022-12-03T13:47:46.192Z,36.08
2022-12-03T13:50:48.170Z,39.65
2022-12-03T13:53:25.323Z,37.63
2022-12-03T13:55:57.313Z,36.60
2022-12-03T13:58:24.590Z,35.45
2022-12-03T14:00:51.211Z,35.00
2022-12-03T14:03:17.855Z,37.05
2022-12-03T14:05:44.394Z,38.17
2022-12-03T14:08:11.165Z,37.97
2022-12-03T14:10:37.675Z,41.35
2022-12-03T14:13:04.237Z,38.30
2022-12-03T14:15:30.743Z,38.10
2022-12-03T14:17:57.315Z,39.25
2022-12-03T14:20:23.831Z,38.95
2022-12-03T14:22:53.978Z,39.05
2022-12-03T14:25:24.139Z,41.67
2022-12-03T14:27:50.670Z,37.45
2022-12-03T14:30:17.300Z,36.13
2022-12-03T14:32:43.834Z,39.55
2022-12-03T14:35:10.483Z,39.90
2022-12-03T14:37:37.020Z,40.15
2022-12-03T14:40:03.984Z,42.88
2022-12-03T14:42:30.497Z,38.83
2022-12-03T14:44:56.992Z,38.08
2022-12-03T14:47:23.689Z,41.97
2022-12-03T14:49:50.920Z,43.88
2022-12-03T14:52:18.147Z,36.85
2022-12-03T14:54:45.202Z,38.90
2022-12-03T14:57:12.979Z,36.97
2022-12-03T14:59:43.991Z,41.78
2022-12-03T15:02:11.821Z,39.95
2022-12-03T15:04:39.531Z,42.13
2022-12-03T15:07:06.156Z,43.10
2022-12-03T15:09:32.924Z,41.03
2022-12-03T15:11:59.985Z,40.65
2022-12-03T15:14:26.751Z,38.25
2022-12-03T15:16:53.353Z,38.72
2022-12-03T15:19:19.885Z,41.03
2022-12-03T15:21:46.366Z,39.13
2022-12-03T15:24:12.854Z,38.95
2022-12-03T15:26:39.360Z,38.22
2022-12-03T15:29:05.876Z,41.70
2022-12-03T15:31:32.631Z,38.47
2022-12-03T15:33:59.208Z,37.20
2022-12-03T15:36:25.708Z,40.75
2022-12-03T15:38:52.313Z,41.80
2022-12-03T15:41:23.283Z,39.10
2022-12-03T15:43:52.362Z,39.38
2022-12-03T15:46:20.028Z,41.80
2022-12-03T15:48:47.412Z,46.53
2022-12-03T15:51:14.311Z,40.15
2022-12-03T15:53:41.159Z,44.13
2022-12-03T15:56:08.430Z,40.00
2022-12-03T15:58:35.197Z,43.03
2022-12-03T16:01:01.891Z,44.53
2022-12-03T16:03:28.522Z,42.50
2022-12-03T16:05:55.198Z,43.05
2022-12-03T16:08:21.817Z,42.67
2022-12-03T16:10:48.393Z,48.75
2022-12-03T16:13:14.855Z,41.67
2022-12-03T16:15:41.398Z,41.05
2022-12-03T16:18:08.009Z,43.22
2022-12-03T16:20:34.478Z,45.33
2022-12-03T16:23:01.002Z,47.60
2022-12-03T16:25:27.568Z,42.17
2022-12-03T16:27:54.115Z,46.38
2022-12-03T16:30:20.622Z,45.25
2022-12-03T16:32:47.137Z,44.97
2022-12-03T16:35:13.625Z,41.28
2022-12-03T16:37:40.388Z,45.13
2022-12-03T16:40:07.571Z,49.63
2022-12-03T16:42:34.088Z,46.67
2022-12-03T16:45:03.435Z,49.00
2022-12-03T16:47:33.806Z,48.17
2022-12-03T16:50:06.586Z,50.72
2022-12-03T16:52:33.512Z,44.83
2022-12-03T16:55:00.291Z,48.30
2022-12-03T16:57:31.944Z,45.95
2022-12-03T17:00:00.494Z,47.33
2022-12-03T17:02:27.699Z,47.60
2022-12-03T17:04:55.464Z,49.95
2022-12-03T17:07:21.986Z,46.15
2022-12-03T17:09:49.071Z,46.58
2022-12-03T17:12:15.552Z,43.63
2022-12-03T17:14:42.041Z,47.88
2022-12-03T17:17:08.533Z,47.95
2022-12-03T17:19:35.080Z,45.95
2022-12-03T17:22:01.527Z,44.65
2022-12-03T17:24:28.041Z,43.90
2022-12-03T17:26:54.541Z,42.65
2022-12-03T17:29:21.038Z,44.17
2022-12-03T17:31:47.641Z,45.25
2022-12-03T17:34:14.185Z,43.08
2022-12-03T17:36:40.703Z,47.45
2022-12-03T17:39:07.206Z,43.85
2022-12-03T17:41:33.707Z,43.90
2022-12-03T17:44:00.144Z,47.42
2022-12-03T17:46:26.658Z,46.03
2022-12-03T17:48:56.793Z,43.50
2022-12-03T17:51:24.516Z,40.92
2022-12-03T17:53:51.135Z,51.90
2022-12-03T17:56:17.680Z,48.05
2022-12-03T17:58:44.294Z,50.83
2022-12-03T18:01:10.905Z,48.63
2022-12-03T18:03:37.636Z,48.72
2022-12-03T18:06:04.748Z,51.50
2022-12-03T18:08:31.330Z,54.65
2022-12-03T18:10:57.934Z,52.13
2022-12-03T18:13:26.059Z,57.35
2022-12-03T18:15:52.690Z,51.83
2022-12-03T18:18:19.192Z,52.63
2022-12-03T18:20:45.658Z,51.47
2022-12-03T18:23:12.462Z,55.75
2022-12-03T18:25:39.304Z,56.78
2022-12-03T18:28:05.800Z,53.83
2022-12-03T18:30:32.338Z,55.65
2022-12-03T18:32:58.881Z,57.22
2022-12-03T18:35:25.511Z,52.55
2022-12-03T18:37:52.068Z,53.95
2022-12-03T18:40:23.774Z,58.60
2022-12-03T18:42:50.711Z,60.47
2022-12-03T18:45:18.569Z,58.67
2022-12-03T18:47:45.231Z,54.10
2022-12-03T18:50:12.815Z,52.83
2022-12-03T18:52:39.623Z,53.42
2022-12-03T18:55:07.367Z,57.17
2022-12-03T18:57:33.928Z,58.47
2022-12-03T19:00:00.503Z,54.17
2022-12-03T19:02:54.275Z,52.95
2022-12-03T19:05:13.495Z,55.53
2022-12-03T19:07:40.093Z,58.85
2022-12-03T19:10:07.894Z,62.90
2022-12-03T19:12:34.443Z,54.65
2022-12-03T19:15:01.542Z,57.97
2022-12-03T19:17:28.354Z,56.03
2022-12-03T19:19:55.605Z,58.10
2022-12-03T19:22:22.788Z,59.60
2022-12-03T19:24:50.080Z,55.17
2022-12-03T19:27:16.850Z,64.75
2022-12-03T19:29:43.352Z,62.95
2022-12-03T19:32:10.838Z,57.15
2022-12-03T19:34:38.031Z,59.45
2022-12-03T19:37:04.496Z,62.38
2022-12-03T19:39:31.823Z,63.90
2022-12-03T19:41:58.319Z,62.17
2022-12-03T19:44:25.048Z,55.72
2022-12-03T19:46:51.597Z,53.25
2022-12-03T19:49:20.949Z,64.88
2022-12-03T19:51:47.734Z,63.30
2022-12-03T19:54:14.322Z,58.97
2022-12-03T19:56:40.860Z,57.55
2022-12-03T19:59:07.827Z,58.10
2022-12-03T20:01:36.171Z,62.60
2022-12-03T20:04:03.803Z,62.42
2022-12-03T20:06:37.769Z,66.65
2022-12-03T20:09:15.352Z,62.08
2022-12-03T20:11:42.620Z,68.53
2022-12-03T20:14:12.706Z,60.88
2022-12-03T20:16:41.581Z,65.65
2022-12-03T20:19:11.552Z,59.67
2022-12-03T20:21:39.111Z,66.97
2022-12-03T20:24:07.481Z,59.40
2022-12-03T20:26:34.395Z,60.25
2022-12-03T20:29:01.614Z,63.55
2022-12-03T20:31:30.593Z,63.22
2022-12-03T20:33:59.700Z,68.85
2022-12-03T20:36:28.109Z,60.60
2022-12-03T20:38:57.240Z,60.72
2022-12-03T20:41:24.244Z,63.20
2022-12-03T20:43:51.372Z,58.72
2022-12-03T20:46:26.450Z,57.38
2022-12-03T20:48:54.178Z,65.53
2022-12-03T20:51:23.614Z,61.15
2022-12-03T20:53:50.679Z,60.80
2022-12-03T20:56:22.748Z,57.33
2022-12-03T20:58:49.635Z,66.72
2022-12-03T21:01:24.527Z,55.35
2022-12-03T21:03:52.847Z,61.95
2022-12-03T21:06:20.725Z,62.85
2022-12-03T21:08:47.658Z,65.22
2022-12-03T21:11:18.232Z,63.22
2022-12-03T21:13:46.148Z,56.45
2022-12-03T21:16:45.572Z,60.20
2022-12-03T21:19:10.390Z,59.33
2022-12-03T21:21:36.985Z,55.28
2022-12-03T21:24:03.828Z,66.97
2022-12-03T21:26:30.412Z,58.63
2022-12-03T21:28:57.012Z,63.47
2022-12-03T21:31:25.861Z,57.83
2022-12-03T21:33:53.539Z,65.38
2022-12-03T21:36:20.295Z,63.70
2022-12-03T21:38:48.200Z,57.13
2022-12-03T21:41:15.024Z,62.78
2022-12-03T21:43:42.634Z,61.75
2022-12-03T21:47:12.343Z,66.15
2022-12-03T21:49:00.023Z,60.72
2022-12-03T21:51:26.515Z,65.15
2022-12-03T21:53:53.351Z,62.15
2022-12-03T21:56:20.284Z,61.00
2022-12-03T21:58:47.359Z,61.97
2022-12-03T22:01:20.497Z,58.55
2022-12-03T22:03:47.540Z,62.58
2022-12-03T22:06:15.367Z,61.97
2022-12-03T22:08:42.062Z,61.70
2022-12-03T22:11:11.139Z,66.05
2022-12-03T22:13:38.826Z,61.20
2022-12-03T22:16:07.560Z,62.03
2022-12-03T22:18:34.941Z,65.47
2022-12-03T22:21:10.867Z,61.45
2022-12-03T22:23:37.950Z,65.43
2022-12-03T22:26:07.131Z,56.65
2022-12-03T22:28:34.249Z,65.68
2022-12-03T22:31:05.996Z,66.13
2022-12-03T22:33:32.670Z,63.88
2022-12-03T22:36:04.839Z,59.88
2022-12-03T22:38:32.328Z,60.45
2022-12-03T22:40:59.447Z,64.53
2022-12-03T22:43:26.008Z,60.85
2022-12-03T22:45:56.213Z,59.65
2022-12-03T22:48:23.862Z,59.55
2022-12-03T22:50:51.721Z,57.45
2022-12-03T22:53:18.721Z,60.05
2022-12-03T22:55:45.211Z,61.05
2022-12-03T22:58:11.730Z,62.08
2022-12-03T23:00:41.106Z,59.78
2022-12-03T23:03:08.487Z,60.20
2022-12-03T23:05:38.526Z,61.17
2022-12-03T23:08:06.351Z,62.85
2022-12-03T23:10:35.025Z,60.15
2022-12-03T23:13:02.673Z,60.75
2022-12-03T23:15:29.421Z,63.45
2022-12-03T23:17:56.668Z,64.65
2022-12-03T23:20:23.867Z,57.13
2022-12-03T23:22:50.568Z,65.40
2022-12-03T23:25:17.440Z,59.53
2022-12-03T23:27:44.837Z,61.83
2022-12-03T23:30:12.471Z,60.53
2022-12-03T23:32:38.938Z,58.58
2022-12-03T23:35:05.988Z,61.47
2022-12-03T23:37:32.596Z,63.42
2022-12-03T23:39:59.262Z,62.97
2022-12-03T23:42:25.753Z,58.85
2022-12-03T23:44:52.288Z,61.88
2022-12-03T23:47:18.760Z,62.08
2022-12-03T23:49:45.229Z,59.10
2022-12-03T23:52:11.887Z,63.22
2022-12-03T23:54:38.354Z,57.10
2022-12-03T23:57:05.059Z,57.08
2022-12-03T23:59:31.663Z,57.75
